sensor_id;sensor_type;location;lat;lon;timestamp;temperature;humidity
17887;DHT22;9069;52.044;7.472;2024-03-23T00:53:54;12.30;96.20
17887;DHT22;9069;52.044;7.472;2024-03-23T00:56:20;12.30;96.20
17887;DHT22;9069;52.044;7.472;2024-03-23T00:58:46;12.30;96.30
17887;DHT22;9069;52.044;7.472;2024-03-23T01:01:12;12.30;96.30
17887;DHT22;9069;52.044;7.472;2024-03-23T01:03:38;12.30;96.30
17887;DHT22;9069;52.044;7.472;2024-03-23T01:06:03;12.30;96.30
17887;DHT22;9069;52.044;7.472;2024-03-23T01:08:30;12.30;96.30
17887;DHT22;9069;52.044;7.472;2024-03-23T01:11:00;12.30;96.30
17887;DHT22;9069;52.044;7.472;2024-03-23T01:13:29;12.30;96.30
17887;DHT22;9069;52.044;7.472;2024-03-23T01:15:56;12.30;96.20
17887;DHT22;9069;52.044;7.472;2024-03-23T01:18:23;12.30;96.20
17887;DHT22;9069;52.044;7.472;2024-03-23T01:20:49;12.30;96.10
17887;DHT22;9069;52.044;7.472;2024-03-23T01:23:15;12.20;96.10
17887;DHT22;9069;52.044;7.472;2024-03-23T01:25:41;12.30;96.20
17887;DHT22;9069;52.044;7.472;2024-03-23T01:28:07;12.20;96.20
17887;DHT22;9069;52.044;7.472;2024-03-23T01:30:34;12.20;96.20
17887;DHT22;9069;52.044;7.472;2024-03-23T01:33:01;12.20;96.20
17887;DHT22;9069;52.044;7.472;2024-03-23T01:35:28;12.20;96.20
17887;DHT22;9069;52.044;7.472;2024-03-23T01:37:54;12.20;96.30
17887;DHT22;9069;52.044;7.472;2024-03-23T01:40:20;12.20;96.30
17887;DHT22;9069;52.044;7.472;2024-03-23T01:43:03;12.20;96.30
17887;DHT22;9069;52.044;7.472;2024-03-23T01:45:30;12.10;96.40
17887;DHT22;9069;52.044;7.472;2024-03-23T01:47:56;12.20;96.30
17887;DHT22;9069;52.044;7.472;2024-03-23T01:50:22;12.10;96.30
17887;DHT22;9069;52.044;7.472;2024-03-23T01:52:49;12.10;96.30
17887;DHT22;9069;52.044;7.472;2024-03-23T01:55:16;12.10;96.30
17887;DHT22;9069;52.044;7.472;2024-03-23T01:57:42;12.10;96.30
17887;DHT22;9069;52.044;7.472;2024-03-23T02:00:08;12.10;96.30
17887;DHT22;9069;52.044;7.472;2024-03-23T02:02:45;12.10;96.40
17887;DHT22;9069;52.044;7.472;2024-03-23T02:05:12;12.10;96.40
17887;DHT22;9069;52.044;7.472;2024-03-23T02:07:42;12.10;96.30
17887;DHT22;9069;52.044;7.472;2024-03-23T02:10:09;12.10;96.30
17887;DHT22;9069;52.044;7.472;2024-03-23T02:12:36;12.10;96.30
17887;DHT22;9069;52.044;7.472;2024-03-23T02:15:02;12.10;96.30
17887;DHT22;9069;52.044;7.472;2024-03-23T02:17:30;12.10;96.20
17887;DHT22;9069;52.044;7.472;2024-03-23T02:19:57;12.10;96.30
17887;DHT22;9069;52.044;7.472;2024-03-23T02:22:23;12.10;96.20
17887;DHT22;9069;52.044;7.472;2024-03-23T02:24:49;12.00;96.20
17887;DHT22;9069;52.044;7.472;2024-03-23T02:27:15;12.00;96.20
17887;DHT22;9069;52.044;7.472;2024-03-23T02:29:41;12.00;96.20
17887;DHT22;9069;52.044;7.472;2024-03-23T02:32:07;12.00;96.30
17887;DHT22;9069;52.044;7.472;2024-03-23T02:34:35;12.00;96.30
17887;DHT22;9069;52.044;7.472;2024-03-23T02:37:01;12.00;96.30
17887;DHT22;9069;52.044;7.472;2024-03-23T02:39:28;12.00;96.30
17887;DHT22;9069;52.044;7.472;2024-03-23T02:41:54;11.90;96.30
17887;DHT22;9069;52.044;7.472;2024-03-23T02:44:20;11.90;96.30
17887;DHT22;9069;52.044;7.472;2024-03-23T02:46:45;11.90;96.30
17887;DHT22;9069;52.044;7.472;2024-03-23T02:49:12;11.90;96.40
17887;DHT22;9069;52.044;7.472;2024-03-23T02:51:38;11.90;96.40
17887;DHT22;9069;52.044;7.472;2024-03-23T02:54:03;11.90;96.40
17887;DHT22;9069;52.044;7.472;2024-03-23T02:56:31;11.90;96.50
17887;DHT22;9069;52.044;7.472;2024-03-23T02:58:57;11.90;96.50
17887;DHT22;9069;52.044;7.472;2024-03-23T03:01:23;11.90;96.50
17887;DHT22;9069;52.044;7.472;2024-03-23T03:03:49;11.90;96.50
17887;DHT22;9069;52.044;7.472;2024-03-23T03:06:23;11.90;96.60
17887;DHT22;9069;52.044;7.472;2024-03-23T03:08:49;11.90;96.80
17887;DHT22;9069;52.044;7.472;2024-03-23T03:11:15;11.90;96.70
17887;DHT22;9069;52.044;7.472;2024-03-23T03:13:41;11.90;96.70
17887;DHT22;9069;52.044;7.472;2024-03-23T03:16:12;11.90;96.80
17887;DHT22;9069;52.044;7.472;2024-03-23T03:18:38;11.80;96.80
17887;DHT22;9069;52.044;7.472;2024-03-23T03:21:06;11.80;96.80
17887;DHT22;9069;52.044;7.472;2024-03-23T03:23:38;11.80;96.90
17887;DHT22;9069;52.044;7.472;2024-03-23T03:26:07;11.80;96.90
17887;DHT22;9069;52.044;7.472;2024-03-23T03:28:34;11.80;97.00
17887;DHT22;9069;52.044;7.472;2024-03-23T03:31:07;11.80;97.00
17887;DHT22;9069;52.044;7.472;2024-03-23T03:33:32;11.80;97.10
17887;DHT22;9069;52.044;7.472;2024-03-23T03:35:58;11.80;97.00
17887;DHT22;9069;52.044;7.472;2024-03-23T03:38:24;11.80;97.00
17887;DHT22;9069;52.044;7.472;2024-03-23T03:40:50;11.80;97.10
17887;DHT22;9069;52.044;7.472;2024-03-23T03:43:16;11.80;97.10
17887;DHT22;9069;52.044;7.472;2024-03-23T03:45:42;11.80;97.10
17887;DHT22;9069;52.044;7.472;2024-03-23T03:48:08;11.80;97.10
17887;DHT22;9069;52.044;7.472;2024-03-23T03:50:34;11.80;97.20
17887;DHT22;9069;52.044;7.472;2024-03-23T03:53:00;11.80;97.50
17887;DHT22;9069;52.044;7.472;2024-03-23T03:55:27;11.80;97.20
17887;DHT22;9069;52.044;7.472;2024-03-23T03:57:53;11.80;97.20
17887;DHT22;9069;52.044;7.472;2024-03-23T04:00:19;11.80;97.20
17887;DHT22;9069;52.044;7.472;2024-03-23T04:02:45;11.80;97.60
17887;DHT22;9069;52.044;7.472;2024-03-23T04:05:11;11.70;97.20
17887;DHT22;9069;52.044;7.472;2024-03-23T04:07:38;11.70;97.20
17887;DHT22;9069;52.044;7.472;2024-03-23T04:10:04;11.70;97.30
17887;DHT22;9069;52.044;7.472;2024-03-23T04:12:33;11.70;97.30
17887;DHT22;9069;52.044;7.472;2024-03-23T04:14:59;11.70;97.30
17887;DHT22;9069;52.044;7.472;2024-03-23T04:17:27;11.70;97.30
17887;DHT22;9069;52.044;7.472;2024-03-23T04:19:57;11.70;97.30
17887;DHT22;9069;52.044;7.472;2024-03-23T04:22:24;11.70;97.30
17887;DHT22;9069;52.044;7.472;2024-03-23T04:24:55;11.70;97.30
17887;DHT22;9069;52.044;7.472;2024-03-23T04:27:22;11.70;97.70
17887;DHT22;9069;52.044;7.472;2024-03-23T04:29:49;11.70;97.30
17887;DHT22;9069;52.044;7.472;2024-03-23T04:32:15;11.70;97.30
17887;DHT22;9069;52.044;7.472;2024-03-23T04:34:42;11.70;97.30
17887;DHT22;9069;52.044;7.472;2024-03-23T04:37:09;11.70;97.30
17887;DHT22;9069;52.044;7.472;2024-03-23T04:39:38;11.70;97.30
17887;DHT22;9069;52.044;7.472;2024-03-23T04:42:05;11.70;97.30
17887;DHT22;9069;52.044;7.472;2024-03-23T04:44:31;11.60;97.20
17887;DHT22;9069;52.044;7.472;2024-03-23T04:46:57;11.60;97.20
17887;DHT22;9069;52.044;7.472;2024-03-23T04:49:23;11.60;97.20
17887;DHT22;9069;52.044;7.472;2024-03-23T04:51:49;11.60;97.20
17887;DHT22;9069;52.044;7.472;2024-03-23T04:54:15;11.60;97.20
17887;DHT22;9069;52.044;7.472;2024-03-23T04:56:41;11.60;97.10
17887;DHT22;9069;52.044;7.472;2024-03-23T04:59:07;11.50;97.10
17887;DHT22;9069;52.044;7.472;2024-03-23T05:01:34;11.50;97.10
17887;DHT22;9069;52.044;7.472;2024-03-23T05:04:02;11.50;97.10
17887;DHT22;9069;52.044;7.472;2024-03-23T05:06:28;11.50;97.00
17887;DHT22;9069;52.044;7.472;2024-03-23T05:08:54;11.70;97.10
17887;DHT22;9069;52.044;7.472;2024-03-23T05:11:20;11.50;97.00
17887;DHT22;9069;52.044;7.472;2024-03-23T05:13:46;11.50;97.00
17887;DHT22;9069;52.044;7.472;2024-03-23T05:16:12;11.40;97.00
17887;DHT22;9069;52.044;7.472;2024-03-23T05:18:38;11.40;97.10
17887;DHT22;9069;52.044;7.472;2024-03-23T05:21:05;11.40;97.10
17887;DHT22;9069;52.044;7.472;2024-03-23T05:23:31;11.40;97.20
17887;DHT22;9069;52.044;7.472;2024-03-23T05:25:57;11.40;97.20
17887;DHT22;9069;52.044;7.472;2024-03-23T05:28:23;11.40;97.20
17887;DHT22;9069;52.044;7.472;2024-03-23T05:30:52;11.30;97.30
17887;DHT22;9069;52.044;7.472;2024-03-23T05:33:19;11.30;97.40
17887;DHT22;9069;52.044;7.472;2024-03-23T05:35:46;11.30;97.30
17887;DHT22;9069;52.044;7.472;2024-03-23T05:38:13;11.30;97.30
17887;DHT22;9069;52.044;7.472;2024-03-23T05:40:39;11.30;97.30
17887;DHT22;9069;52.044;7.472;2024-03-23T05:43:09;11.30;97.30
17887;DHT22;9069;52.044;7.472;2024-03-23T05:45:35;11.30;97.30
17887;DHT22;9069;52.044;7.472;2024-03-23T05:48:00;11.30;97.30
17887;DHT22;9069;52.044;7.472;2024-03-23T05:50:27;11.20;97.20
17887;DHT22;9069;52.044;7.472;2024-03-23T05:52:52;11.20;97.20
17887;DHT22;9069;52.044;7.472;2024-03-23T05:55:18;11.20;97.30
17887;DHT22;9069;52.044;7.472;2024-03-23T05:57:44;11.20;97.20
17887;DHT22;9069;52.044;7.472;2024-03-23T06:00:11;11.20;97.20
17887;DHT22;9069;52.044;7.472;2024-03-23T06:02:44;11.20;97.20
17887;DHT22;9069;52.044;7.472;2024-03-23T06:05:12;11.10;97.30
17887;DHT22;9069;52.044;7.472;2024-03-23T06:07:38;11.10;97.30
17887;DHT22;9069;52.044;7.472;2024-03-23T06:10:07;11.10;97.20
17887;DHT22;9069;52.044;7.472;2024-03-23T06:12:33;11.10;97.30
17887;DHT22;9069;52.044;7.472;2024-03-23T06:14:59;11.10;97.30
17887;DHT22;9069;52.044;7.472;2024-03-23T06:17:25;11.10;97.40
17887;DHT22;9069;52.044;7.472;2024-03-23T06:19:51;11.10;97.40
17887;DHT22;9069;52.044;7.472;2024-03-23T06:22:17;11.10;97.50
17887;DHT22;9069;52.044;7.472;2024-03-23T06:24:43;11.10;97.50
17887;DHT22;9069;52.044;7.472;2024-03-23T06:27:09;11.20;97.60
17887;DHT22;9069;52.044;7.472;2024-03-23T06:29:35;11.20;97.60
17887;DHT22;9069;52.044;7.472;2024-03-23T06:32:02;11.20;97.50
17887;DHT22;9069;52.044;7.472;2024-03-23T06:34:29;11.20;97.50
17887;DHT22;9069;52.044;7.472;2024-03-23T06:36:55;11.20;97.40
17887;DHT22;9069;52.044;7.472;2024-03-23T06:39:21;11.30;97.60
17887;DHT22;9069;52.044;7.472;2024-03-23T06:41:53;11.30;97.70
17887;DHT22;9069;52.044;7.472;2024-03-23T06:44:20;11.30;97.90
17887;DHT22;9069;52.044;7.472;2024-03-23T06:46:46;11.40;98.10
17887;DHT22;9069;52.044;7.472;2024-03-23T06:49:13;11.40;98.40
17887;DHT22;9069;52.044;7.472;2024-03-23T06:51:39;11.60;98.50
17887;DHT22;9069;52.044;7.472;2024-03-23T06:54:05;11.70;98.60
17887;DHT22;9069;52.044;7.472;2024-03-23T06:56:31;11.80;98.70
17887;DHT22;9069;52.044;7.472;2024-03-23T06:58:58;12.00;98.70
17887;DHT22;9069;52.044;7.472;2024-03-23T07:01:24;12.20;98.80
17887;DHT22;9069;52.044;7.472;2024-03-23T07:03:50;12.40;98.80
17887;DHT22;9069;52.044;7.472;2024-03-23T07:06:15;12.60;98.80
17887;DHT22;9069;52.044;7.472;2024-03-23T07:08:41;12.80;98.60
17887;DHT22;9069;52.044;7.472;2024-03-23T07:11:08;13.00;98.60
17887;DHT22;9069;52.044;7.472;2024-03-23T07:13:34;13.30;98.50
17887;DHT22;9069;52.044;7.472;2024-03-23T07:16:00;13.50;98.60
17887;DHT22;9069;52.044;7.472;2024-03-23T07:18:30;13.70;98.40
17887;DHT22;9069;52.044;7.472;2024-03-23T07:20:56;13.90;98.10
17887;DHT22;9069;52.044;7.472;2024-03-23T07:23:23;14.20;97.90
17887;DHT22;9069;52.044;7.472;2024-03-23T07:25:59;14.50;97.60
17887;DHT22;9069;52.044;7.472;2024-03-23T07:28:25;14.70;97.00
17887;DHT22;9069;52.044;7.472;2024-03-23T07:31:11;15.00;97.60
17887;DHT22;9069;52.044;7.472;2024-03-23T07:36:08;15.60;95.80
17887;DHT22;9069;52.044;7.472;2024-03-23T07:38:35;15.80;96.20
17887;DHT22;9069;52.044;7.472;2024-03-23T07:41:13;16.10;96.20
17887;DHT22;9069;52.044;7.472;2024-03-23T07:43:40;16.40;94.60
17887;DHT22;9069;52.044;7.472;2024-03-23T07:46:06;16.60;95.50
17887;DHT22;9069;52.044;7.472;2024-03-23T07:48:33;16.80;95.00
17887;DHT22;9069;52.044;7.472;2024-03-23T07:51:09;17.00;94.10
17887;DHT22;9069;52.044;7.472;2024-03-23T07:53:37;17.20;92.10
17887;DHT22;9069;52.044;7.472;2024-03-23T07:56:06;17.40;92.30
17887;DHT22;9069;52.044;7.472;2024-03-23T07:58:33;17.40;90.80
17887;DHT22;9069;52.044;7.472;2024-03-23T08:01:10;17.50;90.60
17887;DHT22;9069;52.044;7.472;2024-03-23T08:03:37;17.40;86.90
17887;DHT22;9069;52.044;7.472;2024-03-23T08:08:42;17.20;84.40
17887;DHT22;9069;52.044;7.472;2024-03-23T08:11:08;17.00;84.80
17887;DHT22;9069;52.044;7.472;2024-03-23T08:13:35;16.90;84.80
17887;DHT22;9069;52.044;7.472;2024-03-23T08:16:06;16.70;85.20
17887;DHT22;9069;52.044;7.472;2024-03-23T08:18:33;16.50;84.10
17887;DHT22;9069;52.044;7.472;2024-03-23T08:21:00;16.30;85.50
17887;DHT22;9069;52.044;7.472;2024-03-23T08:23:31;16.30;86.90
17887;DHT22;9069;52.044;7.472;2024-03-23T08:26:00;16.20;88.20
17887;DHT22;9069;52.044;7.472;2024-03-23T08:28:29;16.30;89.60
17887;DHT22;9069;52.044;7.472;2024-03-23T08:30:56;16.30;89.10
17887;DHT22;9069;52.044;7.472;2024-03-23T08:33:22;16.40;88.80
17887;DHT22;9069;52.044;7.472;2024-03-23T08:35:59;16.40;88.10
17887;DHT22;9069;52.044;7.472;2024-03-23T08:38:50;16.50;86.70
17887;DHT22;9069;52.044;7.472;2024-03-23T08:41:19;16.60;87.40
17887;DHT22;9069;52.044;7.472;2024-03-23T08:43:45;16.60;86.70
17887;DHT22;9069;52.044;7.472;2024-03-23T08:46:12;16.60;86.50
17887;DHT22;9069;52.044;7.472;2024-03-23T08:48:40;16.70;85.90
17887;DHT22;9069;52.044;7.472;2024-03-23T08:51:08;16.70;84.90
17887;DHT22;9069;52.044;7.472;2024-03-23T08:53:37;16.80;83.50
17887;DHT22;9069;52.044;7.472;2024-03-23T08:56:04;16.80;82.50
17887;DHT22;9069;52.044;7.472;2024-03-23T08:58:32;16.70;82.60
17887;DHT22;9069;52.044;7.472;2024-03-23T09:01:12;16.70;82.50
17887;DHT22;9069;52.044;7.472;2024-03-23T09:03:41;16.60;80.30
17887;DHT22;9069;52.044;7.472;2024-03-23T09:06:13;16.60;81.60
17887;DHT22;9069;52.044;7.472;2024-03-23T09:08:40;16.60;80.30
17887;DHT22;9069;52.044;7.472;2024-03-23T09:11:07;16.50;80.60
17887;DHT22;9069;52.044;7.472;2024-03-23T09:13:35;16.40;80.10
17887;DHT22;9069;52.044;7.472;2024-03-23T09:16:01;16.40;80.00
17887;DHT22;9069;52.044;7.472;2024-03-23T09:18:32;16.30;80.50
17887;DHT22;9069;52.044;7.472;2024-03-23T09:20:58;16.30;80.30
17887;DHT22;9069;52.044;7.472;2024-03-23T09:23:24;16.30;81.80
17887;DHT22;9069;52.044;7.472;2024-03-23T09:25:50;16.40;82.30
17887;DHT22;9069;52.044;7.472;2024-03-23T09:28:16;16.40;82.30
17887;DHT22;9069;52.044;7.472;2024-03-23T09:30:41;16.50;82.90
17887;DHT22;9069;52.044;7.472;2024-03-23T09:33:09;16.60;82.60
17887;DHT22;9069;52.044;7.472;2024-03-23T09:35:41;16.70;82.10
17887;DHT22;9069;52.044;7.472;2024-03-23T09:38:08;16.80;81.80
17887;DHT22;9069;52.044;7.472;2024-03-23T09:40:40;17.00;82.80
17887;DHT22;9069;52.044;7.472;2024-03-23T09:43:06;17.10;83.10
17887;DHT22;9069;52.044;7.472;2024-03-23T09:45:38;17.30;83.40
17887;DHT22;9069;52.044;7.472;2024-03-23T09:48:06;17.50;82.80
17887;DHT22;9069;52.044;7.472;2024-03-23T09:50:33;17.70;82.70
17887;DHT22;9069;52.044;7.472;2024-03-23T09:52:59;17.90;80.50
17887;DHT22;9069;52.044;7.472;2024-03-23T09:55:26;18.00;79.70
17887;DHT22;9069;52.044;7.472;2024-03-23T09:57:52;18.20;78.80
17887;DHT22;9069;52.044;7.472;2024-03-23T10:00:18;18.20;77.40
17887;DHT22;9069;52.044;7.472;2024-03-23T10:02:45;18.20;77.00
17887;DHT22;9069;52.044;7.472;2024-03-23T10:05:23;18.30;75.40
17887;DHT22;9069;52.044;7.472;2024-03-23T10:07:50;18.30;72.80
17887;DHT22;9069;52.044;7.472;2024-03-23T10:10:17;18.20;74.00
17887;DHT22;9069;52.044;7.472;2024-03-23T10:12:47;18.10;73.50
17887;DHT22;9069;52.044;7.472;2024-03-23T10:17:44;17.80;73.80
17887;DHT22;9069;52.044;7.472;2024-03-23T10:20:10;17.70;75.40
17887;DHT22;9069;52.044;7.472;2024-03-23T10:22:38;17.60;76.90
17887;DHT22;9069;52.044;7.472;2024-03-23T10:25:11;17.70;79.00
17887;DHT22;9069;52.044;7.472;2024-03-23T10:27:37;17.80;78.90
17887;DHT22;9069;52.044;7.472;2024-03-23T10:30:11;18.00;79.10
17887;DHT22;9069;52.044;7.472;2024-03-23T10:32:38;18.20;75.60
17887;DHT22;9069;52.044;7.472;2024-03-23T10:35:20;18.40;75.50
17887;DHT22;9069;52.044;7.472;2024-03-23T10:37:49;18.40;73.60
17887;DHT22;9069;52.044;7.472;2024-03-23T10:40:18;18.50;74.80
17887;DHT22;9069;52.044;7.472;2024-03-23T10:42:44;18.50;73.30
17887;DHT22;9069;52.044;7.472;2024-03-23T10:45:10;18.40;71.60
17887;DHT22;9069;52.044;7.472;2024-03-23T10:47:37;18.30;71.20
17887;DHT22;9069;52.044;7.472;2024-03-23T10:50:04;18.30;71.00
17887;DHT22;9069;52.044;7.472;2024-03-23T10:52:33;18.20;71.00
17887;DHT22;9069;52.044;7.472;2024-03-23T10:55:00;18.10;70.80
17887;DHT22;9069;52.044;7.472;2024-03-23T10:57:38;18.00;71.40
17887;DHT22;9069;52.044;7.472;2024-03-23T11:00:06;17.90;71.30
17887;DHT22;9069;52.044;7.472;2024-03-23T11:02:34;17.90;71.30
17887;DHT22;9069;52.044;7.472;2024-03-23T11:05:00;17.80;70.80
17887;DHT22;9069;52.044;7.472;2024-03-23T11:07:31;17.80;70.30
17887;DHT22;9069;52.044;7.472;2024-03-23T11:09:58;17.80;71.00
17887;DHT22;9069;52.044;7.472;2024-03-23T11:15:05;17.60;68.70
17887;DHT22;9069;52.044;7.472;2024-03-23T11:17:38;17.50;66.80
17887;DHT22;9069;52.044;7.472;2024-03-23T11:20:05;17.30;67.60
17887;DHT22;9069;52.044;7.472;2024-03-23T11:22:46;17.20;67.80
17887;DHT22;9069;52.044;7.472;2024-03-23T11:25:17;17.00;66.40
17887;DHT22;9069;52.044;7.472;2024-03-23T11:27:48;16.90;67.20
17887;DHT22;9069;52.044;7.472;2024-03-23T11:30:24;16.80;67.40
17887;DHT22;9069;52.044;7.472;2024-03-23T11:32:52;16.70;68.10
17887;DHT22;9069;52.044;7.472;2024-03-23T11:35:33;16.60;68.40
17887;DHT22;9069;52.044;7.472;2024-03-23T11:40:29;16.40;68.00
17887;DHT22;9069;52.044;7.472;2024-03-23T11:42:56;16.40;68.90
17887;DHT22;9069;52.044;7.472;2024-03-23T11:45:22;16.30;69.40
17887;DHT22;9069;52.044;7.472;2024-03-23T11:47:48;16.20;69.50
17887;DHT22;9069;52.044;7.472;2024-03-23T11:50:20;16.20;69.90
17887;DHT22;9069;52.044;7.472;2024-03-23T11:52:46;16.10;70.20
17887;DHT22;9069;52.044;7.472;2024-03-23T11:55:12;16.10;70.70
17887;DHT22;9069;52.044;7.472;2024-03-23T11:57:38;16.10;71.20
17887;DHT22;9069;52.044;7.472;2024-03-23T12:00:21;16.10;71.10
17887;DHT22;9069;52.044;7.472;2024-03-23T12:02:47;16.00;71.10
17887;DHT22;9069;52.044;7.472;2024-03-23T12:05:16;16.00;71.60
17887;DHT22;9069;52.044;7.472;2024-03-23T12:07:42;16.00;71.30
17887;DHT22;9069;52.044;7.472;2024-03-23T12:10:08;16.00;71.10
17887;DHT22;9069;52.044;7.472;2024-03-23T12:12:34;15.90;71.00
17887;DHT22;9069;52.044;7.472;2024-03-23T12:15:09;15.90;71.30
17887;DHT22;9069;52.044;7.472;2024-03-23T12:17:35;15.90;70.60
17887;DHT22;9069;52.044;7.472;2024-03-23T12:20:02;15.90;71.10
17887;DHT22;9069;52.044;7.472;2024-03-23T12:22:28;15.90;70.50
17887;DHT22;9069;52.044;7.472;2024-03-23T12:24:55;15.80;70.50
17887;DHT22;9069;52.044;7.472;2024-03-23T12:27:21;15.70;69.90
17887;DHT22;9069;52.044;7.472;2024-03-23T12:29:47;15.70;69.30
17887;DHT22;9069;52.044;7.472;2024-03-23T12:32:14;15.60;68.90
17887;DHT22;9069;52.044;7.472;2024-03-23T12:34:40;15.50;68.80
17887;DHT22;9069;52.044;7.472;2024-03-23T12:37:06;15.40;68.70
17887;DHT22;9069;52.044;7.472;2024-03-23T12:39:32;15.20;68.90
17887;DHT22;9069;52.044;7.472;2024-03-23T12:42:01;15.10;69.60
17887;DHT22;9069;52.044;7.472;2024-03-23T12:44:28;15.00;70.10
17887;DHT22;9069;52.044;7.472;2024-03-23T12:46:54;14.90;70.70
17887;DHT22;9069;52.044;7.472;2024-03-23T12:49:20;14.80;71.20
17887;DHT22;9069;52.044;7.472;2024-03-23T12:51:53;14.80;71.60
17887;DHT22;9069;52.044;7.472;2024-03-23T12:54:19;14.80;71.60
17887;DHT22;9069;52.044;7.472;2024-03-23T12:56:46;14.70;71.70
17887;DHT22;9069;52.044;7.472;2024-03-23T12:59:11;14.70;71.80
17887;DHT22;9069;52.044;7.472;2024-03-23T13:01:39;14.70;71.80
17887;DHT22;9069;52.044;7.472;2024-03-23T13:04:05;14.70;71.70
17887;DHT22;9069;52.044;7.472;2024-03-23T13:06:30;14.70;71.70
17887;DHT22;9069;52.044;7.472;2024-03-23T13:09:04;14.60;71.60
17887;DHT22;9069;52.044;7.472;2024-03-23T13:11:30;14.60;71.80
17887;DHT22;9069;52.044;7.472;2024-03-23T13:13:56;14.50;71.90
17887;DHT22;9069;52.044;7.472;2024-03-23T13:16:22;14.50;71.90
17887;DHT22;9069;52.044;7.472;2024-03-23T13:18:50;14.50;71.50
17887;DHT22;9069;52.044;7.472;2024-03-23T13:21:16;14.50;71.10
17887;DHT22;9069;52.044;7.472;2024-03-23T13:23:42;14.40;70.80
17887;DHT22;9069;52.044;7.472;2024-03-23T13:26:11;14.30;70.60
17887;DHT22;9069;52.044;7.472;2024-03-23T13:28:37;14.20;70.30
17887;DHT22;9069;52.044;7.472;2024-03-23T13:31:03;14.20;70.20
17887;DHT22;9069;52.044;7.472;2024-03-23T13:33:30;14.10;70.00
17887;DHT22;9069;52.044;7.472;2024-03-23T13:35:57;14.10;70.30
17887;DHT22;9069;52.044;7.472;2024-03-23T13:38:24;14.10;70.50
17887;DHT22;9069;52.044;7.472;2024-03-23T13:40:58;14.10;70.50
17887;DHT22;9069;52.044;7.472;2024-03-23T13:43:26;14.10;69.50
17887;DHT22;9069;52.044;7.472;2024-03-23T13:45:57;14.10;70.10
17887;DHT22;9069;52.044;7.472;2024-03-23T13:48:24;14.10;70.00
17887;DHT22;9069;52.044;7.472;2024-03-23T13:51:03;14.10;70.50
17887;DHT22;9069;52.044;7.472;2024-03-23T13:53:30;14.10;70.30
17887;DHT22;9069;52.044;7.472;2024-03-23T13:55:56;14.10;70.80
17887;DHT22;9069;52.044;7.472;2024-03-23T13:58:22;14.10;70.80
17887;DHT22;9069;52.044;7.472;2024-03-23T14:00:52;14.10;70.90
17887;DHT22;9069;52.044;7.472;2024-03-23T14:03:18;14.10;71.40
17887;DHT22;9069;52.044;7.472;2024-03-23T14:05:44;14.10;71.90
17887;DHT22;9069;52.044;7.472;2024-03-23T14:08:10;14.10;71.60
17887;DHT22;9069;52.044;7.472;2024-03-23T14:10:40;14.00;71.40
17887;DHT22;9069;52.044;7.472;2024-03-23T14:13:06;14.00;71.20
17887;DHT22;9069;52.044;7.472;2024-03-23T14:15:32;14.00;71.20
17887;DHT22;9069;52.044;7.472;2024-03-23T14:17:59;14.00;71.30
17887;DHT22;9069;52.044;7.472;2024-03-23T14:20:25;14.00;71.10
17887;DHT22;9069;52.044;7.472;2024-03-23T14:22:52;14.00;70.70
17887;DHT22;9069;52.044;7.472;2024-03-23T14:25:18;14.00;70.30
17887;DHT22;9069;52.044;7.472;2024-03-23T14:27:45;14.00;70.50
17887;DHT22;9069;52.044;7.472;2024-03-23T14:30:11;14.00;70.60
17887;DHT22;9069;52.044;7.472;2024-03-23T14:32:40;14.00;70.50
17887;DHT22;9069;52.044;7.472;2024-03-23T14:35:07;14.00;70.70
17887;DHT22;9069;52.044;7.472;2024-03-23T14:37:36;14.00;70.80
17887;DHT22;9069;52.044;7.472;2024-03-23T14:40:03;13.90;70.80
17887;DHT22;9069;52.044;7.472;2024-03-23T14:42:30;13.90;70.80
17887;DHT22;9069;52.044;7.472;2024-03-23T14:44:57;13.90;70.80
17887;DHT22;9069;52.044;7.472;2024-03-23T14:47:23;13.90;70.70
17887;DHT22;9069;52.044;7.472;2024-03-23T14:49:48;13.90;70.20
17887;DHT22;9069;52.044;7.472;2024-03-23T14:52:16;13.90;70.10
17887;DHT22;9069;52.044;7.472;2024-03-23T14:54:43;13.90;70.00
17887;DHT22;9069;52.044;7.472;2024-03-23T14:57:09;13.90;70.40
17887;DHT22;9069;52.044;7.472;2024-03-23T14:59:36;13.90;70.90
17887;DHT22;9069;52.044;7.472;2024-03-23T15:02:07;13.90;71.00
17887;DHT22;9069;52.044;7.472;2024-03-23T15:04:34;14.00;70.70
17887;DHT22;9069;52.044;7.472;2024-03-23T15:07:00;14.00;70.40
17887;DHT22;9069;52.044;7.472;2024-03-23T15:09:27;14.00;69.90
17887;DHT22;9069;52.044;7.472;2024-03-23T15:11:53;14.00;69.80
17887;DHT22;9069;52.044;7.472;2024-03-23T15:14:23;13.90;69.60
17887;DHT22;9069;52.044;7.472;2024-03-23T15:16:49;13.90;69.70
17887;DHT22;9069;52.044;7.472;2024-03-23T15:19:16;13.90;70.00
17887;DHT22;9069;52.044;7.472;2024-03-23T15:21:43;13.80;70.20
17887;DHT22;9069;52.044;7.472;2024-03-23T15:24:09;13.80;70.50
17887;DHT22;9069;52.044;7.472;2024-03-23T15:26:38;13.70;70.70
17887;DHT22;9069;52.044;7.472;2024-03-23T15:29:04;13.70;71.00
17887;DHT22;9069;52.044;7.472;2024-03-23T15:31:38;13.60;71.30
17887;DHT22;9069;52.044;7.472;2024-03-23T15:34:04;13.50;71.60
17887;DHT22;9069;52.044;7.472;2024-03-23T15:36:30;13.40;71.40
17887;DHT22;9069;52.044;7.472;2024-03-23T15:38:58;13.40;71.30
17887;DHT22;9069;52.044;7.472;2024-03-23T15:41:24;13.30;71.40
17887;DHT22;9069;52.044;7.472;2024-03-23T15:43:51;13.20;71.80
17887;DHT22;9069;52.044;7.472;2024-03-23T15:46:17;13.20;72.10
17887;DHT22;9069;52.044;7.472;2024-03-23T15:48:45;13.00;72.50
17887;DHT22;9069;52.044;7.472;2024-03-23T15:51:12;13.10;73.10
17887;DHT22;9069;52.044;7.472;2024-03-23T15:53:38;13.00;73.40
17887;DHT22;9069;52.044;7.472;2024-03-23T15:56:04;13.00;73.60
17887;DHT22;9069;52.044;7.472;2024-03-23T15:58:32;13.10;73.90
17887;DHT22;9069;52.044;7.472;2024-03-23T16:01:08;13.10;74.10
17887;DHT22;9069;52.044;7.472;2024-03-23T16:03:37;13.10;74.30
17887;DHT22;9069;52.044;7.472;2024-03-23T16:06:07;13.10;74.30
17887;DHT22;9069;52.044;7.472;2024-03-23T16:08:33;13.10;74.40
17887;DHT22;9069;52.044;7.472;2024-03-23T16:11:04;13.10;74.70
17887;DHT22;9069;52.044;7.472;2024-03-23T16:13:31;13.10;75.00
17887;DHT22;9069;52.044;7.472;2024-03-23T16:16:01;13.10;74.90
17887;DHT22;9069;52.044;7.472;2024-03-23T16:18:35;13.00;75.30
17887;DHT22;9069;52.044;7.472;2024-03-23T16:21:05;13.00;75.50
17887;DHT22;9069;52.044;7.472;2024-03-23T16:23:33;13.00;75.90
17887;DHT22;9069;52.044;7.472;2024-03-23T16:26:00;12.90;76.10
17887;DHT22;9069;52.044;7.472;2024-03-23T16:28:32;12.90;76.30
17887;DHT22;9069;52.044;7.472;2024-03-23T16:30:59;13.00;76.40
17887;DHT22;9069;52.044;7.472;2024-03-23T16:33:31;12.90;76.40
17887;DHT22;9069;52.044;7.472;2024-03-23T16:35:57;12.90;76.00
17887;DHT22;9069;52.044;7.472;2024-03-23T16:38:23;12.90;75.60
17887;DHT22;9069;52.044;7.472;2024-03-23T16:41:00;12.90;75.50
17887;DHT22;9069;52.044;7.472;2024-03-23T16:43:29;12.80;75.40
17887;DHT22;9069;52.044;7.472;2024-03-23T16:48:24;12.80;75.00
17887;DHT22;9069;52.044;7.472;2024-03-23T16:50:50;12.70;74.60
17887;DHT22;9069;52.044;7.472;2024-03-23T16:53:16;12.70;74.70
17887;DHT22;9069;52.044;7.472;2024-03-23T16:55:42;12.70;74.80